No.8 Ooshima Maru — JI3698 — position and weather

sailwx.info

Track history (hours):
 
Tides and Currents Weather Stations Pressure Air Temp Water Temp Dewpoint Dewpoint Depression Visibility Wind Speed Wind Dir Waves Ship Positions

No.8 Ooshima Maru

Last reported at 2018-Apr-22 10:06 UTC. Time now 2018-Apr-22 14:10 UTC.
Position N 34°38' E 134°53'.

Length 44 m.

Type: Tanker. MMSI: 431301609.

Date/timePositionNaut miles runAvg speedWind from/ knotsBaromVisibWave heightAir tempDewpointWater temp
2018-Apr-22 10:06N 34°38' E 134°53'1 8.9
2018-Apr-22 09:56N 34°38' E 134°55'410.1
2018-Apr-22 09:31N 34°38' E 135°00'4 8.6
2018-Apr-22 09:00N 34°37' E 135°05'510.0
2018-Apr-22 08:30N 34°37' E 135°11'510.2
2018-Apr-22 07:58N 34°37' E 135°18'510.2
2018-Apr-22 07:30N 34°36' E 135°24'3 5.1
2018-Apr-22 06:59N 34°34' E 135°26'0 0.0
2018-Apr-22 06:30N 34°34' E 135°26'0 0.0
2018-Apr-22 06:00N 34°34' E 135°26'0 0.0
2018-Apr-22 05:30N 34°34' E 135°26'0 0.6
2018-Apr-22 05:00N 34°35' E 135°25'4 7.8
2018-Apr-22 04:30N 34°38' E 135°27'1 1.6
2018-Apr-22 03:58N 34°39' E 135°28'0 0.0
2018-Apr-22 03:25N 34°39' E 135°28'0 0.0
2018-Apr-22 02:58N 34°39' E 135°28'0 0.0
2018-Apr-22 02:27N 34°39' E 135°28'0 0.0
2018-Apr-22 02:00N 34°39' E 135°28'0 0.0
2018-Apr-22 01:28N 34°39' E 135°28'0 0.0
2018-Apr-20 09:04N 34°39' E 135°28'0 0.0
2018-Apr-20 08:58N 34°39' E 135°28'4 7.7
2018-Apr-20 08:30N 34°40' E 135°23'611.0
2018-Apr-20 08:01N 34°42' E 135°17'2 3.6
2018-Apr-20 07:30N 34°42' E 135°15'0 0.0
2018-Apr-20 07:00N 34°42' E 135°15'0 0.0
2018-Apr-20 06:27N 34°42' E 135°15'0 0.1
2018-Apr-20 06:00N 34°42' E 135°15'0 0.1
2018-Apr-20 05:29N 34°42' E 135°15'4 7.9
2018-Apr-20 05:00N 34°40' E 135°19'510.2
2018-Apr-20 04:30N 34°37' E 135°24'3 5.9
2018-Apr-20 04:00N 34°34' E 135°26'0 0.0
2018-Apr-20 03:30N 34°34' E 135°26'0 0.0
2018-Apr-20 03:00N 34°34' E 135°26'0 0.0
2018-Apr-20 02:30N 34°34' E 135°26'0 0.0
2018-Apr-20 02:00N 34°34' E 135°26'4 8.4
2018-Apr-20 01:30N 34°38' E 135°26'1 2.8
2018-Apr-20 01:00N 34°39' E 135°25'0 0.1
2018-Apr-20 00:29N 34°39' E 135°25'2 4.3
2018-Apr-20 00:00N 34°39' E 135°28'0 0.0
2018-Apr-19 23:30N 34°39' E 135°28'0 0.0
2018-Apr-19 23:00N 34°39' E 135°28'0 0.0
2018-Apr-19 01:30N 34°39' E 135°28'2 3.5
2018-Apr-19 01:00N 34°37' E 135°26'3 5.9
2018-Apr-19 00:28N 34°34' E 135°26'0 0.0
2018-Apr-18 23:58N 34°34' E 135°26'0 0.0
2018-Apr-18 23:28N 34°34' E 135°26'0 0.0
2018-Apr-18 22:58N 34°34' E 135°26'0 0.7
2018-Apr-18 22:30N 34°35' E 135°26'510.3
2018-Apr-18 21:59N 34°39' E 135°22'3 6.0
2018-Apr-18 21:29N 34°41' E 135°19'0 0.0
2018-Apr-18 21:00N 34°41' E 135°19'0 0.0
2018-Apr-18 20:31N 34°41' E 135°19'0 0.0
2018-Apr-18 20:00N 34°41' E 135°19'0 0.0
2018-Apr-18 19:30N 34°41' E 135°19'0 0.0
2018-Apr-18 19:00N 34°41' E 135°19'0 0.0
2018-Apr-18 18:30N 34°41' E 135°19'0 0.0
2018-Apr-18 18:00N 34°41' E 135°19'0 0.0
2018-Apr-18 17:30N 34°41' E 135°19'0 0.0
2018-Apr-18 17:00N 34°41' E 135°19'0 0.0
2018-Apr-18 16:30N 34°41' E 135°19'0 0.0
2018-Apr-18 16:00N 34°41' E 135°19'0 0.0
2018-Apr-18 15:27N 34°41' E 135°19'0 0.0
2018-Apr-18 14:57N 34°41' E 135°19'0 0.0
2018-Apr-18 14:28N 34°41' E 135°19'0 0.0
2018-Apr-18 14:00N 34°41' E 135°19'0 0.0
2018-Apr-18 13:30N 34°41' E 135°19'0 0.0
2018-Apr-18 13:00N 34°41' E 135°19'0 0.0
2018-Apr-18 12:31N 34°41' E 135°19'0 0.0
2018-Apr-18 12:00N 34°41' E 135°19'0 0.0
2018-Apr-18 11:28N 34°41' E 135°19'1 2.0
2018-Apr-18 11:01N 34°41' E 135°18'1 1.3
2018-Apr-18 10:30N 34°41' E 135°17'0 0.0
2018-Apr-18 10:00N 34°41' E 135°17'0 0.0
2018-Apr-18 09:30N 34°41' E 135°17'0 0.0
2018-Apr-18 08:59N 34°41' E 135°17'0 0.0
2018-Apr-18 08:29N 34°41' E 135°17'0 0.0
2018-Apr-18 07:59N 34°41' E 135°17'0 0.0
2018-Apr-18 07:30N 34°41' E 135°17'0 0.4
2018-Apr-18 06:59N 34°41' E 135°18'1 2.2
2018-Apr-18 06:28N 34°41' E 135°19'5 9.8
2018-Apr-18 06:00N 34°39' E 135°24'3 5.8
2018-Apr-18 05:30N 34°39' E 135°28'0 0.0
2018-Apr-18 04:59N 34°39' E 135°28'0 0.0
2018-Apr-18 04:30N 34°39' E 135°28'0 0.0
2018-Apr-18 04:00N 34°39' E 135°28'0 0.0
2018-Apr-18 03:30N 34°39' E 135°28'0 0.0
2018-Apr-18 02:57N 34°39' E 135°28'0 0.0
2018-Apr-18 02:30N 34°39' E 135°28'0 0.0
2018-Apr-18 01:59N 34°39' E 135°28'0 0.0
2018-Apr-18 01:27N 34°39' E 135°28'0 0.0
2018-Apr-18 00:59N 34°39' E 135°28'0 0.0
2018-Apr-18 00:28N 34°39' E 135°28'0 0.0
2018-Apr-17 23:59N 34°39' E 135°28'0 0.0
2018-Apr-17 23:30N 34°39' E 135°28'0 0.0
2018-Apr-17 04:08N 34°39' E 135°28'0 0.0
2018-Apr-17 03:59N 34°39' E 135°28'2 5.0
2018-Apr-17 03:30N 34°37' E 135°25'4 7.5
2018-Apr-17 03:00N 34°33' E 135°25'1 1.2
2018-Apr-17 02:29N 34°33' E 135°26'0 0.0
2018-Apr-17 01:59N 34°33' E 135°26'0 1.0
2018-Apr-17 01:30N 34°33' E 135°25'4 8.2
2018-Apr-17 01:00N 34°37' E 135°26'2 3.9
2018-Apr-17 00:30N 34°39' E 135°28'0 0.0
2018-Apr-16 23:52N 34°39' E 135°28'0 0.0
2018-Apr-16 23:28N 34°39' E 135°28'0 0.0
2018-Apr-16 06:35N 34°39' E 135°28'0 0.0
2018-Apr-16 06:30N 34°39' E 135°28'0 0.0
2018-Apr-16 06:00N 34°39' E 135°28'0 0.0
2018-Apr-16 05:28N 34°39' E 135°28'1 3.0
2018-Apr-16 05:00N 34°39' E 135°26'510.7
2018-Apr-16 04:31N 34°38' E 135°19'611.0
2018-Apr-16 04:00N 34°37' E 135°13'611.1
2018-Apr-16 03:30N 34°36' E 135°06'612.5
2018-Apr-16 03:00N 34°37' E 134°59'711.2
2018-Apr-16 02:21N 34°40' E 134°51'4 0.2
2018-Apr-15 06:02N 34°38' E 134°54'0 8.4
2018-Apr-15 05:59N 34°38' E 134°55'5 9.3
2018-Apr-15 05:29N 34°38' E 135°00'4 7.5
2018-Apr-15 05:00N 34°37' E 135°04'510.0
2018-Apr-15 04:30N 34°36' E 135°11'510.1
2018-Apr-15 04:00N 34°35' E 135°17'510.1
2018-Apr-15 03:30N 34°34' E 135°22'3 5.6
2018-Apr-15 03:00N 34°33' E 135°26'0 0.0
2018-Apr-15 02:30N 34°33' E 135°26'0 0.0
2018-Apr-15 02:00N 34°33' E 135°26'0 0.1
2018-Apr-15 01:29N 34°33' E 135°26'4 7.2
2018-Apr-15 00:59N 34°37' E 135°25'3 5.1
2018-Apr-15 00:28N 34°39' E 135°28'0 0.0
2018-Apr-14 23:58N 34°39' E 135°28'0 0.0
2018-Apr-14 23:28N 34°39' E 135°28'0 0.0
2018-Apr-14 23:00N 34°39' E 135°28'0 0.0
2018-Apr-14 10:43N 34°39' E 135°28'0 0.0
2018-Apr-14 10:28N 34°39' E 135°28'3 6.3
2018-Apr-14 10:01N 34°39' E 135°24'611.1
2018-Apr-14 09:31N 34°42' E 135°18'5 9.3
2018-Apr-14 09:00N 34°41' E 135°12'0 0.0
2018-Apr-14 08:30N 34°41' E 135°12'0 0.0
2018-Apr-14 08:00N 34°41' E 135°12'0 0.0
2018-Apr-14 07:28N 34°41' E 135°12'0 0.0
2018-Apr-14 07:00N 34°41' E 135°12'1 2.0
2018-Apr-14 06:30N 34°41' E 135°13'0 0.8
2018-Apr-14 06:00N 34°41' E 135°14'0 0.0
2018-Apr-14 05:30N 34°41' E 135°14'1 2.8
2018-Apr-14 05:00N 34°40' E 135°15'5 9.3
2018-Apr-14 04:30N 34°37' E 135°19'5 9.1
2018-Apr-14 04:00N 34°34' E 135°23'3 5.1
2018-Apr-14 03:30N 34°32' E 135°24'0 0.0
2018-Apr-14 02:58N 34°32' E 135°24'0 0.0
2018-Apr-14 02:28N 34°32' E 135°24'0 0.0
2018-Apr-14 01:57N 34°32' E 135°24'4 8.3
2018-Apr-14 01:30N 34°35' E 135°24'5 9.0
2018-Apr-14 01:00N 34°39' E 135°28'0 0.2
2018-Apr-14 00:30N 34°39' E 135°28'0 0.0
2018-Apr-13 07:44N 34°39' E 135°28'0 0.0
2018-Apr-13 07:29N 34°39' E 135°28'2 4.4
2018-Apr-13 07:00N 34°37' E 135°26'510.1
2018-Apr-13 06:30N 34°34' E 135°21'510.6
2018-Apr-13 06:00N 34°30' E 135°17'510.6
2018-Apr-13 05:30N 34°26' E 135°12'510.1
2018-Apr-13 05:00N 34°23' E 135°08'510.6
2018-Apr-13 04:30N 34°18' E 135°04'610.3
2018-Apr-13 03:54N 34°12' E 135°03'2 0.4
2018-Apr-12 22:10N 34°10' E 135°04'2 9.9
2018-Apr-12 22:00N 34°12' E 135°05'3 1.0
2018-Apr-12 18:30N 34°15' E 135°06'0 0.0
2018-Apr-12 13:14N 34°15' E 135°06'0 0.0
2018-Apr-12 12:53N 34°15' E 135°06'0 0.0
2018-Apr-12 11:56N 34°15' E 135°06'  
Track history (hours):
 
Tides and Currents Weather Stations Pressure Air Temp Water Temp Dewpoint Dewpoint Depression Visibility Wind Speed Wind Dir Waves Ship Positions

No.8 Ooshima Maru

Last reported at 2018-Apr-22 10:06 UTC. Time now 2018-Apr-22 14:10 UTC.
Position N 34°38' E 134°53'.

Length 44 m.

Type: Tanker. MMSI: 431301609.

Date/timePositionNaut miles runAvg speedWind from/ knotsBaromVisibWave heightAir tempDewpointWater temp
2018-Apr-22 10:06N 34°38' E 134°53'1 8.9
2018-Apr-22 09:56N 34°38' E 134°55'410.1
2018-Apr-22 09:31N 34°38' E 135°00'4 8.6
2018-Apr-22 09:00N 34°37' E 135°05'510.0
2018-Apr-22 08:30N 34°37' E 135°11'510.2
2018-Apr-22 07:58N 34°37' E 135°18'510.2
2018-Apr-22 07:30N 34°36' E 135°24'3 5.1
2018-Apr-22 06:59N 34°34' E 135°26'0 0.0
2018-Apr-22 06:30N 34°34' E 135°26'0 0.0
2018-Apr-22 06:00N 34°34' E 135°26'0 0.0
2018-Apr-22 05:30N 34°34' E 135°26'0 0.6
2018-Apr-22 05:00N 34°35' E 135°25'4 7.8
2018-Apr-22 04:30N 34°38' E 135°27'1 1.6
2018-Apr-22 03:58N 34°39' E 135°28'0 0.0
2018-Apr-22 03:25N 34°39' E 135°28'0 0.0
2018-Apr-22 02:58N 34°39' E 135°28'0 0.0
2018-Apr-22 02:27N 34°39' E 135°28'0 0.0
2018-Apr-22 02:00N 34°39' E 135°28'0 0.0
2018-Apr-22 01:28N 34°39' E 135°28'0 0.0
2018-Apr-20 09:04N 34°39' E 135°28'0 0.0
2018-Apr-20 08:58N 34°39' E 135°28'4 7.7
2018-Apr-20 08:30N 34°40' E 135°23'611.0
2018-Apr-20 08:01N 34°42' E 135°17'2 3.6
2018-Apr-20 07:30N 34°42' E 135°15'0 0.0
2018-Apr-20 07:00N 34°42' E 135°15'0 0.0
2018-Apr-20 06:27N 34°42' E 135°15'0 0.1
2018-Apr-20 06:00N 34°42' E 135°15'0 0.1
2018-Apr-20 05:29N 34°42' E 135°15'4 7.9
2018-Apr-20 05:00N 34°40' E 135°19'510.2
2018-Apr-20 04:30N 34°37' E 135°24'3 5.9
2018-Apr-20 04:00N 34°34' E 135°26'0 0.0
2018-Apr-20 03:30N 34°34' E 135°26'0 0.0
2018-Apr-20 03:00N 34°34' E 135°26'0 0.0
2018-Apr-20 02:30N 34°34' E 135°26'0 0.0
2018-Apr-20 02:00N 34°34' E 135°26'4 8.4
2018-Apr-20 01:30N 34°38' E 135°26'1 2.8
2018-Apr-20 01:00N 34°39' E 135°25'0 0.1
2018-Apr-20 00:29N 34°39' E 135°25'2 4.3
2018-Apr-20 00:00N 34°39' E 135°28'0 0.0
2018-Apr-19 23:30N 34°39' E 135°28'0 0.0
2018-Apr-19 23:00N 34°39' E 135°28'0 0.0
2018-Apr-19 01:30N 34°39' E 135°28'2 3.5
2018-Apr-19 01:00N 34°37' E 135°26'3 5.9
2018-Apr-19 00:28N 34°34' E 135°26'0 0.0
2018-Apr-18 23:58N 34°34' E 135°26'0 0.0
2018-Apr-18 23:28N 34°34' E 135°26'0 0.0
2018-Apr-18 22:58N 34°34' E 135°26'0 0.7
2018-Apr-18 22:30N 34°35' E 135°26'510.3
2018-Apr-18 21:59N 34°39' E 135°22'3 6.0
2018-Apr-18 21:29N 34°41' E 135°19'0 0.0
2018-Apr-18 21:00N 34°41' E 135°19'0 0.0
2018-Apr-18 20:31N 34°41' E 135°19'0 0.0
2018-Apr-18 20:00N 34°41' E 135°19'0 0.0
2018-Apr-18 19:30N 34°41' E 135°19'0 0.0
2018-Apr-18 19:00N 34°41' E 135°19'0 0.0
2018-Apr-18 18:30N 34°41' E 135°19'0 0.0
2018-Apr-18 18:00N 34°41' E 135°19'0 0.0
2018-Apr-18 17:30N 34°41' E 135°19'0 0.0
2018-Apr-18 17:00N 34°41' E 135°19'0 0.0
2018-Apr-18 16:30N 34°41' E 135°19'0 0.0
2018-Apr-18 16:00N 34°41' E 135°19'0 0.0
2018-Apr-18 15:27N 34°41' E 135°19'0 0.0
2018-Apr-18 14:57N 34°41' E 135°19'0 0.0
2018-Apr-18 14:28N 34°41' E 135°19'0 0.0
2018-Apr-18 14:00N 34°41' E 135°19'0 0.0
2018-Apr-18 13:30N 34°41' E 135°19'0 0.0
2018-Apr-18 13:00N 34°41' E 135°19'0 0.0
2018-Apr-18 12:31N 34°41' E 135°19'0 0.0
2018-Apr-18 12:00N 34°41' E 135°19'0 0.0
2018-Apr-18 11:28N 34°41' E 135°19'1 2.0
2018-Apr-18 11:01N 34°41' E 135°18'1 1.3
2018-Apr-18 10:30N 34°41' E 135°17'0 0.0
2018-Apr-18 10:00N 34°41' E 135°17'0 0.0
2018-Apr-18 09:30N 34°41' E 135°17'0 0.0
2018-Apr-18 08:59N 34°41' E 135°17'0 0.0
2018-Apr-18 08:29N 34°41' E 135°17'0 0.0
2018-Apr-18 07:59N 34°41' E 135°17'0 0.0
2018-Apr-18 07:30N 34°41' E 135°17'0 0.4
2018-Apr-18 06:59N 34°41' E 135°18'1 2.2
2018-Apr-18 06:28N 34°41' E 135°19'5 9.8
2018-Apr-18 06:00N 34°39' E 135°24'3 5.8
2018-Apr-18 05:30N 34°39' E 135°28'0 0.0
2018-Apr-18 04:59N 34°39' E 135°28'0 0.0
2018-Apr-18 04:30N 34°39' E 135°28'0 0.0
2018-Apr-18 04:00N 34°39' E 135°28'0 0.0
2018-Apr-18 03:30N 34°39' E 135°28'0 0.0
2018-Apr-18 02:57N 34°39' E 135°28'0 0.0
2018-Apr-18 02:30N 34°39' E 135°28'0 0.0
2018-Apr-18 01:59N 34°39' E 135°28'0 0.0
2018-Apr-18 01:27N 34°39' E 135°28'0 0.0
2018-Apr-18 00:59N 34°39' E 135°28'0 0.0
2018-Apr-18 00:28N 34°39' E 135°28'0 0.0
2018-Apr-17 23:59N 34°39' E 135°28'0 0.0
2018-Apr-17 23:30N 34°39' E 135°28'0 0.0
2018-Apr-17 04:08N 34°39' E 135°28'0 0.0
2018-Apr-17 03:59N 34°39' E 135°28'2 5.0
2018-Apr-17 03:30N 34°37' E 135°25'4 7.5
2018-Apr-17 03:00N 34°33' E 135°25'1 1.2
2018-Apr-17 02:29N 34°33' E 135°26'0 0.0
2018-Apr-17 01:59N 34°33' E 135°26'0 1.0
2018-Apr-17 01:30N 34°33' E 135°25'4 8.2
2018-Apr-17 01:00N 34°37' E 135°26'2 3.9
2018-Apr-17 00:30N 34°39' E 135°28'0 0.0
2018-Apr-16 23:52N 34°39' E 135°28'0 0.0
2018-Apr-16 23:28N 34°39' E 135°28'0 0.0
2018-Apr-16 06:35N 34°39' E 135°28'0 0.0
2018-Apr-16 06:30N 34°39' E 135°28'0 0.0
2018-Apr-16 06:00N 34°39' E 135°28'0 0.0
2018-Apr-16 05:28N 34°39' E 135°28'1 3.0
2018-Apr-16 05:00N 34°39' E 135°26'510.7
2018-Apr-16 04:31N 34°38' E 135°19'611.0
2018-Apr-16 04:00N 34°37' E 135°13'611.1
2018-Apr-16 03:30N 34°36' E 135°06'612.5
2018-Apr-16 03:00N 34°37' E 134°59'711.2
2018-Apr-16 02:21N 34°40' E 134°51'4 0.2
2018-Apr-15 06:02N 34°38' E 134°54'0 8.4
2018-Apr-15 05:59N 34°38' E 134°55'5 9.3
2018-Apr-15 05:29N 34°38' E 135°00'4 7.5
2018-Apr-15 05:00N 34°37' E 135°04'510.0
2018-Apr-15 04:30N 34°36' E 135°11'510.1
2018-Apr-15 04:00N 34°35' E 135°17'510.1
2018-Apr-15 03:30N 34°34' E 135°22'3 5.6
2018-Apr-15 03:00N 34°33' E 135°26'0 0.0
2018-Apr-15 02:30N 34°33' E 135°26'0 0.0
2018-Apr-15 02:00N 34°33' E 135°26'0 0.1
2018-Apr-15 01:29N 34°33' E 135°26'4 7.2
2018-Apr-15 00:59N 34°37' E 135°25'3 5.1
2018-Apr-15 00:28N 34°39' E 135°28'0 0.0
2018-Apr-14 23:58N 34°39' E 135°28'0 0.0
2018-Apr-14 23:28N 34°39' E 135°28'0 0.0
2018-Apr-14 23:00N 34°39' E 135°28'0 0.0
2018-Apr-14 10:43N 34°39' E 135°28'0 0.0
2018-Apr-14 10:28N 34°39' E 135°28'3 6.3
2018-Apr-14 10:01N 34°39' E 135°24'611.1
2018-Apr-14 09:31N 34°42' E 135°18'5 9.3
2018-Apr-14 09:00N 34°41' E 135°12'0 0.0
2018-Apr-14 08:30N 34°41' E 135°12'0 0.0
2018-Apr-14 08:00N 34°41' E 135°12'0 0.0
2018-Apr-14 07:28N 34°41' E 135°12'0 0.0
2018-Apr-14 07:00N 34°41' E 135°12'1 2.0
2018-Apr-14 06:30N 34°41' E 135°13'0 0.8
2018-Apr-14 06:00N 34°41' E 135°14'0 0.0
2018-Apr-14 05:30N 34°41' E 135°14'1 2.8
2018-Apr-14 05:00N 34°40' E 135°15'5 9.3
2018-Apr-14 04:30N 34°37' E 135°19'5 9.1
2018-Apr-14 04:00N 34°34' E 135°23'3 5.1
2018-Apr-14 03:30N 34°32' E 135°24'0 0.0
2018-Apr-14 02:58N 34°32' E 135°24'0 0.0
2018-Apr-14 02:28N 34°32' E 135°24'0 0.0
2018-Apr-14 01:57N 34°32' E 135°24'4 8.3
2018-Apr-14 01:30N 34°35' E 135°24'5 9.0
2018-Apr-14 01:00N 34°39' E 135°28'0 0.2
2018-Apr-14 00:30N 34°39' E 135°28'0 0.0
2018-Apr-13 07:44N 34°39' E 135°28'0 0.0
2018-Apr-13 07:29N 34°39' E 135°28'2 4.4
2018-Apr-13 07:00N 34°37' E 135°26'510.1
2018-Apr-13 06:30N 34°34' E 135°21'510.6
2018-Apr-13 06:00N 34°30' E 135°17'510.6
2018-Apr-13 05:30N 34°26' E 135°12'510.1
2018-Apr-13 05:00N 34°23' E 135°08'510.6
2018-Apr-13 04:30N 34°18' E 135°04'610.3
2018-Apr-13 03:54N 34°12' E 135°03'2 0.4
2018-Apr-12 22:10N 34°10' E 135°04'2 9.9
2018-Apr-12 22:00N 34°12' E 135°05'3 1.0
2018-Apr-12 18:30N 34°15' E 135°06'0 0.0
2018-Apr-12 13:14N 34°15' E 135°06'0 0.0
2018-Apr-12 12:53N 34°15' E 135°06'0 0.0
2018-Apr-12 11:56N 34°15' E 135°06'  

Dump ship's entire track history